sensor_id;sensor_type;location;lat;lon;timestamp;P1;durP1;ratioP1;P2;durP2;ratioP2
42364;SDS011;28498;54.400;18.566;2022-12-24T00:01:42;17.70;;;6.72;;
42364;SDS011;28498;54.400;18.566;2022-12-24T00:04:09;13.63;;;6.53;;
42364;SDS011;28498;54.400;18.566;2022-12-24T00:06:37;14.75;;;6.60;;
42364;SDS011;28498;54.400;18.566;2022-12-24T00:09:04;13.82;;;6.85;;
42364;SDS011;28498;54.400;18.566;2022-12-24T00:11:31;13.20;;;6.93;;
42364;SDS011;28498;54.400;18.566;2022-12-24T00:13:59;14.10;;;7.68;;
42364;SDS011;28498;54.400;18.566;2022-12-24T00:16:26;15.93;;;8.40;;
42364;SDS011;28498;54.400;18.566;2022-12-24T00:18:54;18.95;;;8.55;;
42364;SDS011;28498;54.400;18.566;2022-12-24T00:21:21;18.83;;;8.18;;
42364;SDS011;28498;54.400;18.566;2022-12-24T00:23:48;14.90;;;7.90;;
42364;SDS011;28498;54.400;18.566;2022-12-24T00:26:16;13.43;;;6.70;;
42364;SDS011;28498;54.400;18.566;2022-12-24T00:28:44;17.80;;;7.15;;
42364;SDS011;28498;54.400;18.566;2022-12-24T00:31:12;15.05;;;6.90;;
42364;SDS011;28498;54.400;18.566;2022-12-24T00:33:40;16.23;;;7.28;;
42364;SDS011;28498;54.400;18.566;2022-12-24T00:36:07;15.57;;;7.72;;
42364;SDS011;28498;54.400;18.566;2022-12-24T00:38:35;20.08;;;8.18;;
42364;SDS011;28498;54.400;18.566;2022-12-24T00:41:03;14.15;;;8.00;;
42364;SDS011;28498;54.400;18.566;2022-12-24T00:43:31;16.92;;;7.80;;
42364;SDS011;28498;54.400;18.566;2022-12-24T00:45:58;15.80;;;7.93;;
42364;SDS011;28498;54.400;18.566;2022-12-24T00:48:26;14.73;;;7.40;;
42364;SDS011;28498;54.400;18.566;2022-12-24T00:50:53;14.05;;;7.55;;
42364;SDS011;28498;54.400;18.566;2022-12-24T00:53:21;20.08;;;7.18;;
42364;SDS011;28498;54.400;18.566;2022-12-24T00:55:48;17.08;;;7.30;;
42364;SDS011;28498;54.400;18.566;2022-12-24T00:58:15;16.35;;;7.43;;
42364;SDS011;28498;54.400;18.566;2022-12-24T01:00:43;18.77;;;8.05;;
42364;SDS011;28498;54.400;18.566;2022-12-24T01:03:10;17.95;;;8.88;;
42364;SDS011;28498;54.400;18.566;2022-12-24T01:05:37;17.17;;;8.00;;
42364;SDS011;28498;54.400;18.566;2022-12-24T01:08:05;18.30;;;8.68;;
42364;SDS011;28498;54.400;18.566;2022-12-24T01:10:32;15.35;;;7.70;;
42364;SDS011;28498;54.400;18.566;2022-12-24T01:13:00;13.55;;;7.18;;
42364;SDS011;28498;54.400;18.566;2022-12-24T01:15:28;15.55;;;6.90;;
42364;SDS011;28498;54.400;18.566;2022-12-24T01:17:55;15.35;;;7.55;;
42364;SDS011;28498;54.400;18.566;2022-12-24T01:20:23;14.98;;;6.20;;
42364;SDS011;28498;54.400;18.566;2022-12-24T01:22:56;18.25;;;7.50;;
42364;SDS011;28498;54.400;18.566;2022-12-24T01:25:24;11.55;;;6.15;;
42364;SDS011;28498;54.400;18.566;2022-12-24T01:27:51;13.52;;;6.63;;
42364;SDS011;28498;54.400;18.566;2022-12-24T01:30:18;15.30;;;7.50;;
42364;SDS011;28498;54.400;18.566;2022-12-24T01:32:46;15.88;;;7.10;;
42364;SDS011;28498;54.400;18.566;2022-12-24T01:35:13;18.98;;;7.82;;
42364;SDS011;28498;54.400;18.566;2022-12-24T01:37:40;11.93;;;6.75;;
42364;SDS011;28498;54.400;18.566;2022-12-24T01:40:09;17.75;;;7.65;;
42364;SDS011;28498;54.400;18.566;2022-12-24T01:42:58;13.20;;;6.70;;
42364;SDS011;28498;54.400;18.566;2022-12-24T01:50:52;14.00;;;6.88;;
42364;SDS011;28498;54.400;18.566;2022-12-24T01:53:21;15.65;;;7.70;;
42364;SDS011;28498;54.400;18.566;2022-12-24T01:55:48;19.88;;;8.63;;
42364;SDS011;28498;54.400;18.566;2022-12-24T01:58:16;20.00;;;7.75;;
42364;SDS011;28498;54.400;18.566;2022-12-24T02:00:44;13.50;;;7.22;;
42364;SDS011;28498;54.400;18.566;2022-12-24T02:03:11;16.38;;;7.32;;
42364;SDS011;28498;54.400;18.566;2022-12-24T02:05:46;12.30;;;7.47;;
42364;SDS011;28498;54.400;18.566;2022-12-24T02:08:14;11.38;;;6.85;;
42364;SDS011;28498;54.400;18.566;2022-12-24T02:10:42;17.23;;;7.45;;
42364;SDS011;28498;54.400;18.566;2022-12-24T02:13:10;17.65;;;8.52;;
42364;SDS011;28498;54.400;18.566;2022-12-24T02:15:44;15.35;;;8.75;;
42364;SDS011;28498;54.400;18.566;2022-12-24T02:18:19;19.00;;;8.02;;
42364;SDS011;28498;54.400;18.566;2022-12-24T02:31:10;18.77;;;9.20;;
42364;SDS011;28498;54.400;18.566;2022-12-24T02:33:42;22.08;;;9.52;;
42364;SDS011;28498;54.400;18.566;2022-12-24T02:36:19;20.45;;;9.18;;
42364;SDS011;28498;54.400;18.566;2022-12-24T02:38:51;19.42;;;8.23;;
42364;SDS011;28498;54.400;18.566;2022-12-24T02:41:22;19.85;;;9.57;;
42364;SDS011;28498;54.400;18.566;2022-12-24T02:43:50;18.05;;;9.57;;
42364;SDS011;28498;54.400;18.566;2022-12-24T02:46:23;17.70;;;8.25;;
42364;SDS011;28498;54.400;18.566;2022-12-24T02:48:52;16.98;;;8.35;;
42364;SDS011;28498;54.400;18.566;2022-12-24T02:51:23;16.52;;;8.43;;
42364;SDS011;28498;54.400;18.566;2022-12-24T02:53:50;13.88;;;7.68;;
42364;SDS011;28498;54.400;18.566;2022-12-24T03:10:18;12.93;;;6.60;;
42364;SDS011;28498;54.400;18.566;2022-12-24T03:12:27;13.15;;;6.82;;
42364;SDS011;28498;54.400;18.566;2022-12-24T03:14:56;10.88;;;5.65;;
42364;SDS011;28498;54.400;18.566;2022-12-24T03:17:24;14.00;;;6.32;;
42364;SDS011;28498;54.400;18.566;2022-12-24T03:19:53;15.13;;;6.10;;
42364;SDS011;28498;54.400;18.566;2022-12-24T03:22:21;12.63;;;6.50;;
42364;SDS011;28498;54.400;18.566;2022-12-24T03:24:49;9.93;;;6.05;;
42364;SDS011;28498;54.400;18.566;2022-12-24T03:27:16;9.18;;;5.05;;
42364;SDS011;28498;54.400;18.566;2022-12-24T03:29:43;9.85;;;5.25;;
42364;SDS011;28498;54.400;18.566;2022-12-24T03:32:12;13.45;;;5.65;;
42364;SDS011;28498;54.400;18.566;2022-12-24T03:34:39;7.57;;;3.90;;
42364;SDS011;28498;54.400;18.566;2022-12-24T03:37:06;7.22;;;3.97;;
42364;SDS011;28498;54.400;18.566;2022-12-24T03:39:34;7.85;;;4.32;;
42364;SDS011;28498;54.400;18.566;2022-12-24T03:42:01;11.02;;;4.53;;
42364;SDS011;28498;54.400;18.566;2022-12-24T03:44:28;11.23;;;5.30;;
42364;SDS011;28498;54.400;18.566;2022-12-24T03:46:56;10.85;;;5.05;;
42364;SDS011;28498;54.400;18.566;2022-12-24T03:49:23;9.43;;;4.65;;
42364;SDS011;28498;54.400;18.566;2022-12-24T03:51:50;8.27;;;3.75;;
42364;SDS011;28498;54.400;18.566;2022-12-24T03:54:18;12.20;;;4.15;;
42364;SDS011;28498;54.400;18.566;2022-12-24T03:56:45;7.60;;;3.55;;
42364;SDS011;28498;54.400;18.566;2022-12-24T03:59:12;10.52;;;3.83;;
42364;SDS011;28498;54.400;18.566;2022-12-24T04:01:40;7.47;;;3.72;;
42364;SDS011;28498;54.400;18.566;2022-12-24T04:04:07;8.02;;;3.25;;
42364;SDS011;28498;54.400;18.566;2022-12-24T04:06:34;7.13;;;3.63;;
42364;SDS011;28498;54.400;18.566;2022-12-24T04:09:02;10.00;;;4.30;;
42364;SDS011;28498;54.400;18.566;2022-12-24T04:11:30;8.55;;;3.67;;
42364;SDS011;28498;54.400;18.566;2022-12-24T04:13:58;7.22;;;3.03;;
42364;SDS011;28498;54.400;18.566;2022-12-24T04:16:25;7.10;;;3.70;;
42364;SDS011;28498;54.400;18.566;2022-12-24T04:18:53;9.35;;;3.30;;
42364;SDS011;28498;54.400;18.566;2022-12-24T04:21:20;7.88;;;3.53;;
42364;SDS011;28498;54.400;18.566;2022-12-24T04:23:47;10.10;;;3.92;;
42364;SDS011;28498;54.400;18.566;2022-12-24T04:26:15;7.30;;;3.63;;
42364;SDS011;28498;54.400;18.566;2022-12-24T04:28:42;7.90;;;3.38;;
42364;SDS011;28498;54.400;18.566;2022-12-24T04:31:11;4.78;;;2.50;;
42364;SDS011;28498;54.400;18.566;2022-12-24T04:33:39;4.82;;;2.38;;
42364;SDS011;28498;54.400;18.566;2022-12-24T04:36:07;5.85;;;3.05;;
42364;SDS011;28498;54.400;18.566;2022-12-24T04:38:34;7.68;;;3.13;;
42364;SDS011;28498;54.400;18.566;2022-12-24T04:41:16;10.15;;;3.60;;
42364;SDS011;28498;54.400;18.566;2022-12-24T04:43:49;6.07;;;2.40;;
42364;SDS011;28498;54.400;18.566;2022-12-24T04:46:19;7.00;;;3.35;;
42364;SDS011;28498;54.400;18.566;2022-12-24T04:48:47;6.78;;;3.40;;
42364;SDS011;28498;54.400;18.566;2022-12-24T04:51:15;7.03;;;3.30;;
42364;SDS011;28498;54.400;18.566;2022-12-24T04:53:43;6.13;;;2.92;;
42364;SDS011;28498;54.400;18.566;2022-12-24T04:56:11;5.30;;;2.90;;
42364;SDS011;28498;54.400;18.566;2022-12-24T04:58:38;4.10;;;2.10;;
42364;SDS011;28498;54.400;18.566;2022-12-24T05:01:07;7.97;;;2.67;;
42364;SDS011;28498;54.400;18.566;2022-12-24T05:03:35;4.97;;;2.28;;
42364;SDS011;28498;54.400;18.566;2022-12-24T05:06:06;11.43;;;5.32;;
42364;SDS011;28498;54.400;18.566;2022-12-24T05:08:34;15.45;;;6.15;;
42364;SDS011;28498;54.400;18.566;2022-12-24T05:11:02;5.90;;;3.70;;
42364;SDS011;28498;54.400;18.566;2022-12-24T05:13:29;12.48;;;4.30;;
42364;SDS011;28498;54.400;18.566;2022-12-24T05:16:09;17.38;;;6.47;;
42364;SDS011;28498;54.400;18.566;2022-12-24T05:18:37;9.35;;;4.28;;
42364;SDS011;28498;54.400;18.566;2022-12-24T05:21:19;28.40;;;10.98;;
42364;SDS011;28498;54.400;18.566;2022-12-24T05:23:47;5.55;;;2.40;;
42364;SDS011;28498;54.400;18.566;2022-12-24T05:29:01;7.43;;;3.03;;
42364;SDS011;28498;54.400;18.566;2022-12-24T05:31:29;5.30;;;2.08;;
42364;SDS011;28498;54.400;18.566;2022-12-24T05:33:57;4.03;;;1.85;;
42364;SDS011;28498;54.400;18.566;2022-12-24T05:36:24;6.57;;;2.30;;
42364;SDS011;28498;54.400;18.566;2022-12-24T05:38:51;4.35;;;2.17;;
42364;SDS011;28498;54.400;18.566;2022-12-24T05:41:19;6.50;;;2.22;;
42364;SDS011;28498;54.400;18.566;2022-12-24T05:43:46;15.32;;;7.07;;
42364;SDS011;28498;54.400;18.566;2022-12-24T05:46:14;4.72;;;1.90;;
42364;SDS011;28498;54.400;18.566;2022-12-24T05:48:42;5.15;;;2.55;;
42364;SDS011;28498;54.400;18.566;2022-12-24T05:51:11;6.88;;;2.75;;
42364;SDS011;28498;54.400;18.566;2022-12-24T05:53:38;6.95;;;3.53;;
42364;SDS011;28498;54.400;18.566;2022-12-24T05:56:13;8.80;;;4.78;;
42364;SDS011;28498;54.400;18.566;2022-12-24T05:58:42;9.75;;;4.85;;
42364;SDS011;28498;54.400;18.566;2022-12-24T06:01:09;8.80;;;4.38;;
42364;SDS011;28498;54.400;18.566;2022-12-24T06:03:37;9.32;;;5.03;;
42364;SDS011;28498;54.400;18.566;2022-12-24T06:06:05;10.57;;;4.65;;
42364;SDS011;28498;54.400;18.566;2022-12-24T06:08:33;7.47;;;4.07;;
42364;SDS011;28498;54.400;18.566;2022-12-24T06:11:01;8.00;;;4.43;;
42364;SDS011;28498;54.400;18.566;2022-12-24T06:13:29;12.20;;;6.22;;
42364;SDS011;28498;54.400;18.566;2022-12-24T06:15:57;10.85;;;6.40;;
42364;SDS011;28498;54.400;18.566;2022-12-24T06:18:25;11.77;;;6.35;;
42364;SDS011;28498;54.400;18.566;2022-12-24T06:20:53;13.88;;;7.00;;
42364;SDS011;28498;54.400;18.566;2022-12-24T06:23:21;14.75;;;6.70;;
42364;SDS011;28498;54.400;18.566;2022-12-24T06:25:49;9.68;;;5.93;;
42364;SDS011;28498;54.400;18.566;2022-12-24T06:28:17;9.95;;;5.25;;
42364;SDS011;28498;54.400;18.566;2022-12-24T06:30:45;13.80;;;6.95;;
42364;SDS011;28498;54.400;18.566;2022-12-24T06:33:13;10.20;;;5.72;;
42364;SDS011;28498;54.400;18.566;2022-12-24T06:35:40;11.63;;;5.78;;
42364;SDS011;28498;54.400;18.566;2022-12-24T06:38:08;41.83;;;14.77;;
42364;SDS011;28498;54.400;18.566;2022-12-24T06:40:36;65.22;;;21.77;;
42364;SDS011;28498;54.400;18.566;2022-12-24T06:43:04;26.25;;;10.10;;
42364;SDS011;28498;54.400;18.566;2022-12-24T06:45:32;11.57;;;5.88;;
42364;SDS011;28498;54.400;18.566;2022-12-24T06:47:59;9.07;;;5.53;;
42364;SDS011;28498;54.400;18.566;2022-12-24T06:50:26;10.27;;;5.40;;
42364;SDS011;28498;54.400;18.566;2022-12-24T06:52:54;10.77;;;5.60;;
42364;SDS011;28498;54.400;18.566;2022-12-24T06:55:21;10.02;;;4.65;;
42364;SDS011;28498;54.400;18.566;2022-12-24T06:57:49;9.80;;;4.82;;
42364;SDS011;28498;54.400;18.566;2022-12-24T07:00:16;8.27;;;4.43;;
42364;SDS011;28498;54.400;18.566;2022-12-24T07:02:43;13.77;;;6.03;;
42364;SDS011;28498;54.400;18.566;2022-12-24T07:05:11;8.80;;;5.22;;
42364;SDS011;28498;54.400;18.566;2022-12-24T07:07:39;15.77;;;6.22;;
42364;SDS011;28498;54.400;18.566;2022-12-24T07:10:07;12.05;;;6.60;;
42364;SDS011;28498;54.400;18.566;2022-12-24T07:12:34;21.50;;;8.63;;
42364;SDS011;28498;54.400;18.566;2022-12-24T07:15:02;18.15;;;8.68;;
42364;SDS011;28498;54.400;18.566;2022-12-24T07:17:29;8.90;;;5.38;;
42364;SDS011;28498;54.400;18.566;2022-12-24T07:19:57;17.33;;;8.23;;
42364;SDS011;28498;54.400;18.566;2022-12-24T07:22:24;13.07;;;7.47;;
42364;SDS011;28498;54.400;18.566;2022-12-24T07:24:51;11.80;;;6.35;;
42364;SDS011;28498;54.400;18.566;2022-12-24T07:27:18;13.90;;;6.07;;
42364;SDS011;28498;54.400;18.566;2022-12-24T07:29:46;13.98;;;7.25;;
42364;SDS011;28498;54.400;18.566;2022-12-24T07:32:13;12.38;;;5.93;;
42364;SDS011;28498;54.400;18.566;2022-12-24T07:34:40;21.42;;;9.40;;
42364;SDS011;28498;54.400;18.566;2022-12-24T07:37:08;15.00;;;7.75;;
42364;SDS011;28498;54.400;18.566;2022-12-24T07:39:35;17.55;;;9.10;;
42364;SDS011;28498;54.400;18.566;2022-12-24T07:42:02;20.45;;;10.60;;
42364;SDS011;28498;54.400;18.566;2022-12-24T07:44:33;27.17;;;11.05;;
42364;SDS011;28498;54.400;18.566;2022-12-24T07:47:01;24.85;;;12.48;;
42364;SDS011;28498;54.400;18.566;2022-12-24T07:49:28;31.25;;;13.88;;
42364;SDS011;28498;54.400;18.566;2022-12-24T07:51:55;29.50;;;12.77;;
42364;SDS011;28498;54.400;18.566;2022-12-24T07:54:23;24.73;;;11.75;;
42364;SDS011;28498;54.400;18.566;2022-12-24T07:56:50;30.88;;;13.15;;
42364;SDS011;28498;54.400;18.566;2022-12-24T07:59:17;27.70;;;12.35;;
42364;SDS011;28498;54.400;18.566;2022-12-24T08:01:45;27.05;;;13.38;;
42364;SDS011;28498;54.400;18.566;2022-12-24T08:04:12;30.20;;;14.95;;
42364;SDS011;28498;54.400;18.566;2022-12-24T08:06:40;18.80;;;8.48;;
42364;SDS011;28498;54.400;18.566;2022-12-24T08:09:07;13.15;;;5.18;;
42364;SDS011;28498;54.400;18.566;2022-12-24T08:11:34;12.25;;;4.97;;
42364;SDS011;28498;54.400;18.566;2022-12-24T08:14:02;13.00;;;5.93;;
42364;SDS011;28498;54.400;18.566;2022-12-24T08:16:29;16.65;;;8.50;;
42364;SDS011;28498;54.400;18.566;2022-12-24T08:18:56;16.08;;;8.25;;
42364;SDS011;28498;54.400;18.566;2022-12-24T08:21:24;22.02;;;11.45;;
42364;SDS011;28498;54.400;18.566;2022-12-24T08:23:51;32.67;;;15.13;;
42364;SDS011;28498;54.400;18.566;2022-12-24T08:26:18;7.47;;;3.30;;
42364;SDS011;28498;54.400;18.566;2022-12-24T08:28:46;6.65;;;3.30;;
42364;SDS011;28498;54.400;18.566;2022-12-24T08:31:13;21.30;;;10.73;;
42364;SDS011;28498;54.400;18.566;2022-12-24T08:33:41;7.55;;;3.50;;
42364;SDS011;28498;54.400;18.566;2022-12-24T08:36:08;10.23;;;4.75;;
42364;SDS011;28498;54.400;18.566;2022-12-24T08:38:35;11.70;;;4.38;;
42364;SDS011;28498;54.400;18.566;2022-12-24T08:41:03;20.77;;;8.85;;
42364;SDS011;28498;54.400;18.566;2022-12-24T08:43:30;24.13;;;13.77;;
42364;SDS011;28498;54.400;18.566;2022-12-24T08:46:00;64.75;;;24.38;;
42364;SDS011;28498;54.400;18.566;2022-12-24T08:48:29;55.15;;;21.30;;
42364;SDS011;28498;54.400;18.566;2022-12-24T08:50:56;29.63;;;13.55;;
42364;SDS011;28498;54.400;18.566;2022-12-24T08:53:24;43.88;;;19.25;;
42364;SDS011;28498;54.400;18.566;2022-12-24T08:55:51;56.70;;;24.80;;
42364;SDS011;28498;54.400;18.566;2022-12-24T08:58:21;38.60;;;19.65;;
42364;SDS011;28498;54.400;18.566;2022-12-24T09:00:48;36.42;;;16.48;;
42364;SDS011;28498;54.400;18.566;2022-12-24T09:03:16;44.50;;;18.73;;
42364;SDS011;28498;54.400;18.566;2022-12-24T09:05:52;37.28;;;16.35;;
42364;SDS011;28498;54.400;18.566;2022-12-24T09:08:20;34.97;;;15.88;;
42364;SDS011;28498;54.400;18.566;2022-12-24T09:10:47;30.15;;;13.65;;
42364;SDS011;28498;54.400;18.566;2022-12-24T09:13:14;25.65;;;12.10;;
42364;SDS011;28498;54.400;18.566;2022-12-24T09:15:42;60.63;;;22.05;;
42364;SDS011;28498;54.400;18.566;2022-12-24T09:18:09;24.75;;;10.80;;
42364;SDS011;28498;54.400;18.566;2022-12-24T09:20:36;9.45;;;4.35;;
42364;SDS011;28498;54.400;18.566;2022-12-24T09:23:10;21.35;;;7.93;;
42364;SDS011;28498;54.400;18.566;2022-12-24T09:25:41;13.30;;;6.80;;
42364;SDS011;28498;54.400;18.566;2022-12-24T09:28:09;17.65;;;7.45;;
42364;SDS011;28498;54.400;18.566;2022-12-24T09:30:36;9.95;;;4.93;;
42364;SDS011;28498;54.400;18.566;2022-12-24T09:33:03;8.23;;;4.50;;
42364;SDS011;28498;54.400;18.566;2022-12-24T09:35:31;9.85;;;4.63;;
42364;SDS011;28498;54.400;18.566;2022-12-24T09:37:58;12.88;;;6.13;;
42364;SDS011;28498;54.400;18.566;2022-12-24T09:40:38;13.25;;;6.82;;
42364;SDS011;28498;54.400;18.566;2022-12-24T09:43:24;11.90;;;6.45;;
42364;SDS011;28498;54.400;18.566;2022-12-24T09:48:36;19.55;;;8.70;;
42364;SDS011;28498;54.400;18.566;2022-12-24T09:51:08;18.10;;;7.85;;
42364;SDS011;28498;54.400;18.566;2022-12-24T09:56:05;20.75;;;10.25;;
42364;SDS011;28498;54.400;18.566;2022-12-24T09:58:34;23.23;;;9.18;;
42364;SDS011;28498;54.400;18.566;2022-12-24T10:01:03;23.20;;;10.18;;
42364;SDS011;28498;54.400;18.566;2022-12-24T10:03:31;23.58;;;8.77;;
42364;SDS011;28498;54.400;18.566;2022-12-24T10:06:09;22.20;;;9.43;;
42364;SDS011;28498;54.400;18.566;2022-12-24T10:13:58;17.63;;;6.70;;
42364;SDS011;28498;54.400;18.566;2022-12-24T10:18:55;16.38;;;6.78;;
42364;SDS011;28498;54.400;18.566;2022-12-24T10:21:42;19.85;;;7.18;;
42364;SDS011;28498;54.400;18.566;2022-12-24T10:24:16;11.77;;;5.00;;
42364;SDS011;28498;54.400;18.566;2022-12-24T10:26:53;6.50;;;4.03;;
42364;SDS011;28498;54.400;18.566;2022-12-24T10:29:23;8.77;;;4.35;;
42364;SDS011;28498;54.400;18.566;2022-12-24T10:34:45;9.23;;;5.10;;
42364;SDS011;28498;54.400;18.566;2022-12-24T10:37:16;10.90;;;5.90;;
42364;SDS011;28498;54.400;18.566;2022-12-24T10:39:46;5.72;;;3.17;;
42364;SDS011;28498;54.400;18.566;2022-12-24T10:42:13;4.50;;;2.55;;
42364;SDS011;28498;54.400;18.566;2022-12-24T10:44:41;4.78;;;1.50;;
42364;SDS011;28498;54.400;18.566;2022-12-24T10:47:11;4.75;;;1.75;;
42364;SDS011;28498;54.400;18.566;2022-12-24T10:49:52;3.88;;;1.55;;
42364;SDS011;28498;54.400;18.566;2022-12-24T10:52:20;2.70;;;1.30;;
42364;SDS011;28498;54.400;18.566;2022-12-24T10:57:34;5.55;;;2.10;;
42364;SDS011;28498;54.400;18.566;2022-12-24T11:00:02;2.40;;;1.35;;
42364;SDS011;28498;54.400;18.566;2022-12-24T11:04:57;5.15;;;1.35;;
42364;SDS011;28498;54.400;18.566;2022-12-24T11:07:26;2.05;;;1.20;;
42364;SDS011;28498;54.400;18.566;2022-12-24T11:10:00;5.45;;;1.85;;
42364;SDS011;28498;54.400;18.566;2022-12-24T11:12:29;2.47;;;1.40;;
42364;SDS011;28498;54.400;18.566;2022-12-24T11:15:02;2.75;;;1.40;;
42364;SDS011;28498;54.400;18.566;2022-12-24T11:17:31;2.47;;;1.20;;
42364;SDS011;28498;54.400;18.566;2022-12-24T11:19:59;4.00;;;1.10;;
42364;SDS011;28498;54.400;18.566;2022-12-24T11:22:29;2.72;;;1.50;;
42364;SDS011;28498;54.400;18.566;2022-12-24T11:25:10;2.78;;;1.20;;
42364;SDS011;28498;54.400;18.566;2022-12-24T11:27:45;2.53;;;1.20;;
42364;SDS011;28498;54.400;18.566;2022-12-24T11:32:44;4.03;;;1.23;;
42364;SDS011;28498;54.400;18.566;2022-12-24T11:35:16;2.78;;;1.40;;
42364;SDS011;28498;54.400;18.566;2022-12-24T11:37:44;3.13;;;1.52;;
42364;SDS011;28498;54.400;18.566;2022-12-24T11:40:21;2.63;;;1.30;;
42364;SDS011;28498;54.400;18.566;2022-12-24T11:42:49;2.83;;;1.23;;
42364;SDS011;28498;54.400;18.566;2022-12-24T11:45:21;3.63;;;1.88;;
42364;SDS011;28498;54.400;18.566;2022-12-24T11:47:49;3.15;;;1.60;;
42364;SDS011;28498;54.400;18.566;2022-12-24T11:50:32;4.93;;;2.05;;
42364;SDS011;28498;54.400;18.566;2022-12-24T12:00:50;6.45;;;2.20;;
42364;SDS011;28498;54.400;18.566;2022-12-24T12:05:52;3.58;;;1.90;;
42364;SDS011;28498;54.400;18.566;2022-12-24T12:08:21;5.82;;;2.20;;
42364;SDS011;28498;54.400;18.566;2022-12-24T12:10:49;6.00;;;1.80;;
42364;SDS011;28498;54.400;18.566;2022-12-24T12:13:19;6.07;;;2.83;;
42364;SDS011;28498;54.400;18.566;2022-12-24T12:16:04;5.70;;;2.10;;
42364;SDS011;28498;54.400;18.566;2022-12-24T12:18:39;6.40;;;2.58;;
42364;SDS011;28498;54.400;18.566;2022-12-24T12:21:15;6.50;;;2.88;;
42364;SDS011;28498;54.400;18.566;2022-12-24T12:26:17;7.47;;;3.13;;
42364;SDS011;28498;54.400;18.566;2022-12-24T12:31:25;8.90;;;3.33;;
42364;SDS011;28498;54.400;18.566;2022-12-24T12:33:55;9.70;;;3.65;;
42364;SDS011;28498;54.400;18.566;2022-12-24T12:36:30;11.57;;;3.72;;
42364;SDS011;28498;54.400;18.566;2022-12-24T12:38:59;6.68;;;2.95;;
42364;SDS011;28498;54.400;18.566;2022-12-24T12:49:32;11.68;;;6.20;;
42364;SDS011;28498;54.400;18.566;2022-12-24T12:52:10;16.02;;;6.90;;
42364;SDS011;28498;54.400;18.566;2022-12-24T12:57:13;16.63;;;7.35;;
42364;SDS011;28498;54.400;18.566;2022-12-24T12:59:52;18.40;;;8.18;;
42364;SDS011;28498;54.400;18.566;2022-12-24T13:02:24;16.45;;;7.78;;
42364;SDS011;28498;54.400;18.566;2022-12-24T13:07:38;27.27;;;11.35;;
42364;SDS011;28498;54.400;18.566;2022-12-24T13:13:25;24.52;;;12.18;;
42364;SDS011;28498;54.400;18.566;2022-12-24T13:21:41;21.88;;;8.50;;
42364;SDS011;28498;54.400;18.566;2022-12-24T13:26:40;19.52;;;8.70;;
42364;SDS011;28498;54.400;18.566;2022-12-24T13:32:49;19.92;;;8.65;;
42364;SDS011;28498;54.400;18.566;2022-12-24T13:34:56;28.25;;;11.52;;
42364;SDS011;28498;54.400;18.566;2022-12-24T13:42:44;19.60;;;8.73;;
42364;SDS011;28498;54.400;18.566;2022-12-24T13:50:35;22.30;;;8.70;;
42364;SDS011;28498;54.400;18.566;2022-12-24T13:53:04;21.50;;;8.82;;
42364;SDS011;28498;54.400;18.566;2022-12-24T13:55:31;18.52;;;6.82;;
42364;SDS011;28498;54.400;18.566;2022-12-24T13:58:03;16.40;;;7.75;;
42364;SDS011;28498;54.400;18.566;2022-12-24T14:00:41;19.13;;;8.77;;
42364;SDS011;28498;54.400;18.566;2022-12-24T14:08:13;18.05;;;8.63;;
42364;SDS011;28498;54.400;18.566;2022-12-24T14:10:42;18.25;;;9.00;;
42364;SDS011;28498;54.400;18.566;2022-12-24T14:21:27;23.73;;;9.55;;
42364;SDS011;28498;54.400;18.566;2022-12-24T14:23:59;21.70;;;10.05;;
42364;SDS011;28498;54.400;18.566;2022-12-24T14:26:31;17.50;;;7.32;;
42364;SDS011;28498;54.400;18.566;2022-12-24T14:29:14;18.98;;;7.47;;
42364;SDS011;28498;54.400;18.566;2022-12-24T14:31:53;22.33;;;8.77;;
42364;SDS011;28498;54.400;18.566;2022-12-24T14:34:21;20.25;;;8.73;;
42364;SDS011;28498;54.400;18.566;2022-12-24T14:36:49;26.17;;;9.75;;
42364;SDS011;28498;54.400;18.566;2022-12-24T14:44:42;17.67;;;8.50;;
42364;SDS011;28498;54.400;18.566;2022-12-24T14:52:39;17.77;;;7.55;;
42364;SDS011;28498;54.400;18.566;2022-12-24T14:58:15;12.80;;;6.22;;
42364;SDS011;28498;54.400;18.566;2022-12-24T15:00:43;16.02;;;7.63;;
42364;SDS011;28498;54.400;18.566;2022-12-24T15:03:14;20.95;;;10.48;;
42364;SDS011;28498;54.400;18.566;2022-12-24T15:05:42;21.42;;;9.13;;
42364;SDS011;28498;54.400;18.566;2022-12-24T15:08:14;26.88;;;11.20;;
42364;SDS011;28498;54.400;18.566;2022-12-24T15:10:42;14.40;;;6.03;;
42364;SDS011;28498;54.400;18.566;2022-12-24T15:15:46;13.63;;;6.43;;
42364;SDS011;28498;54.400;18.566;2022-12-24T15:18:19;13.50;;;6.90;;
42364;SDS011;28498;54.400;18.566;2022-12-24T15:20:49;22.00;;;9.05;;
42364;SDS011;28498;54.400;18.566;2022-12-24T15:23:18;17.88;;;8.27;;
42364;SDS011;28498;54.400;18.566;2022-12-24T15:25:45;17.95;;;8.40;;
42364;SDS011;28498;54.400;18.566;2022-12-24T15:28:16;14.93;;;8.43;;
42364;SDS011;28498;54.400;18.566;2022-12-24T15:30:44;26.55;;;11.13;;
42364;SDS011;28498;54.400;18.566;2022-12-24T15:33:12;18.65;;;8.63;;
42364;SDS011;28498;54.400;18.566;2022-12-24T15:38:28;18.70;;;8.80;;
42364;SDS011;28498;54.400;18.566;2022-12-24T15:40:55;22.75;;;8.60;;
42364;SDS011;28498;54.400;18.566;2022-12-24T15:43:23;16.98;;;7.18;;
42364;SDS011;28498;54.400;18.566;2022-12-24T15:45:51;22.80;;;10.30;;
42364;SDS011;28498;54.400;18.566;2022-12-24T15:48:20;29.55;;;9.68;;
42364;SDS011;28498;54.400;18.566;2022-12-24T15:50:50;30.10;;;7.63;;
42364;SDS011;28498;54.400;18.566;2022-12-24T15:53:22;44.97;;;7.95;;
42364;SDS011;28498;54.400;18.566;2022-12-24T15:58:39;110.53;;;23.30;;
42364;SDS011;28498;54.400;18.566;2022-12-24T16:06:16;141.93;;;30.70;;
42364;SDS011;28498;54.400;18.566;2022-12-24T16:08:43;77.53;;;10.27;;
42364;SDS011;28498;54.400;18.566;2022-12-24T16:13:42;39.17;;;9.88;;
42364;SDS011;28498;54.400;18.566;2022-12-24T16:16:10;49.38;;;8.50;;
42364;SDS011;28498;54.400;18.566;2022-12-24T16:18:45;78.18;;;23.40;;
42364;SDS011;28498;54.400;18.566;2022-12-24T16:21:34;96.07;;;18.67;;
42364;SDS011;28498;54.400;18.566;2022-12-24T16:24:22;113.90;;;12.23;;
42364;SDS011;28498;54.400;18.566;2022-12-24T16:26:50;33.22;;;6.15;;
42364;SDS011;28498;54.400;18.566;2022-12-24T16:29:17;148.00;;;14.00;;
42364;SDS011;28498;54.400;18.566;2022-12-24T16:31:46;37.78;;;7.82;;
42364;SDS011;28498;54.400;18.566;2022-12-24T16:34:16;53.20;;;11.55;;
42364;SDS011;28498;54.400;18.566;2022-12-24T16:36:44;31.90;;;7.40;;
42364;SDS011;28498;54.400;18.566;2022-12-24T16:39:12;22.73;;;6.32;;
42364;SDS011;28498;54.400;18.566;2022-12-24T16:41:53;10.40;;;4.07;;
42364;SDS011;28498;54.400;18.566;2022-12-24T16:44:39;19.98;;;5.93;;
42364;SDS011;28498;54.400;18.566;2022-12-24T16:49:40;18.30;;;7.17;;
42364;SDS011;28498;54.400;18.566;2022-12-24T16:52:13;28.02;;;7.07;;
42364;SDS011;28498;54.400;18.566;2022-12-24T16:54:41;20.73;;;7.68;;
42364;SDS011;28498;54.400;18.566;2022-12-24T16:57:09;16.63;;;7.22;;
42364;SDS011;28498;54.400;18.566;2022-12-24T16:59:36;16.20;;;6.05;;
42364;SDS011;28498;54.400;18.566;2022-12-24T17:02:04;15.13;;;6.18;;
42364;SDS011;28498;54.400;18.566;2022-12-24T17:04:39;12.15;;;5.43;;
42364;SDS011;28498;54.400;18.566;2022-12-24T17:07:06;13.55;;;5.25;;
42364;SDS011;28498;54.400;18.566;2022-12-24T17:09:34;13.93;;;7.22;;
42364;SDS011;28498;54.400;18.566;2022-12-24T17:12:01;14.07;;;6.00;;